sensor_id;sensor_type;location;lat;lon;timestamp;P1;durP1;ratioP1;P2;durP2;ratioP2
9188;SDS011;34313;50.780;6.084;2023-11-21T00:00:00;22.73;;;13.30;;
9188;SDS011;34313;50.780;6.084;2023-11-21T00:02:26;19.47;;;12.83;;
9188;SDS011;34313;50.780;6.084;2023-11-21T00:04:55;22.30;;;12.20;;
9188;SDS011;34313;50.780;6.084;2023-11-21T00:07:20;21.03;;;13.73;;
9188;SDS011;34313;50.780;6.084;2023-11-21T00:09:46;25.33;;;13.63;;
9188;SDS011;34313;50.780;6.084;2023-11-21T00:12:12;23.53;;;12.70;;
9188;SDS011;34313;50.780;6.084;2023-11-21T00:14:38;22.60;;;13.63;;
9188;SDS011;34313;50.780;6.084;2023-11-21T00:17:07;20.23;;;11.90;;
9188;SDS011;34313;50.780;6.084;2023-11-21T00:19:33;20.10;;;12.27;;
9188;SDS011;34313;50.780;6.084;2023-11-21T00:22:01;19.13;;;13.00;;
9188;SDS011;34313;50.780;6.084;2023-11-21T00:24:27;18.30;;;11.60;;
9188;SDS011;34313;50.780;6.084;2023-11-21T00:26:52;21.03;;;13.23;;
9188;SDS011;34313;50.780;6.084;2023-11-21T00:29:18;21.43;;;13.50;;
9188;SDS011;34313;50.780;6.084;2023-11-21T00:31:44;21.13;;;13.00;;
9188;SDS011;34313;50.780;6.084;2023-11-21T00:34:12;20.00;;;12.77;;
9188;SDS011;34313;50.780;6.084;2023-11-21T00:36:41;18.90;;;12.13;;
9188;SDS011;34313;50.780;6.084;2023-11-21T00:39:07;23.40;;;13.80;;
9188;SDS011;34313;50.780;6.084;2023-11-21T00:41:35;28.77;;;15.30;;
9188;SDS011;34313;50.780;6.084;2023-11-21T00:44:01;26.77;;;14.57;;
9188;SDS011;34313;50.780;6.084;2023-11-21T00:46:27;24.73;;;14.80;;
9188;SDS011;34313;50.780;6.084;2023-11-21T00:48:54;29.50;;;16.57;;
9188;SDS011;34313;50.780;6.084;2023-11-21T00:51:20;27.93;;;16.67;;
9188;SDS011;34313;50.780;6.084;2023-11-21T00:53:49;31.03;;;16.50;;
9188;SDS011;34313;50.780;6.084;2023-11-21T00:56:15;31.67;;;16.37;;
9188;SDS011;34313;50.780;6.084;2023-11-21T00:58:40;28.43;;;15.83;;
9188;SDS011;34313;50.780;6.084;2023-11-21T01:01:11;33.23;;;17.20;;
9188;SDS011;34313;50.780;6.084;2023-11-21T01:03:37;30.70;;;15.63;;
9188;SDS011;34313;50.780;6.084;2023-11-21T01:06:02;31.03;;;17.97;;
9188;SDS011;34313;50.780;6.084;2023-11-21T01:08:29;33.60;;;17.37;;
9188;SDS011;34313;50.780;6.084;2023-11-21T01:10:56;29.17;;;16.57;;
9188;SDS011;34313;50.780;6.084;2023-11-21T01:13:21;30.90;;;17.10;;
9188;SDS011;34313;50.780;6.084;2023-11-21T01:15:46;28.80;;;17.27;;
9188;SDS011;34313;50.780;6.084;2023-11-21T01:18:12;28.53;;;16.07;;
9188;SDS011;34313;50.780;6.084;2023-11-21T01:20:38;30.10;;;15.70;;
9188;SDS011;34313;50.780;6.084;2023-11-21T01:23:03;26.90;;;15.13;;
9188;SDS011;34313;50.780;6.084;2023-11-21T01:25:29;32.00;;;16.33;;
9188;SDS011;34313;50.780;6.084;2023-11-21T01:27:58;26.10;;;15.07;;
9188;SDS011;34313;50.780;6.084;2023-11-21T01:30:23;27.23;;;15.20;;
9188;SDS011;34313;50.780;6.084;2023-11-21T01:32:49;30.50;;;15.00;;
9188;SDS011;34313;50.780;6.084;2023-11-21T01:35:15;30.60;;;15.07;;
9188;SDS011;34313;50.780;6.084;2023-11-21T01:37:41;27.63;;;15.20;;
9188;SDS011;34313;50.780;6.084;2023-11-21T01:40:06;27.87;;;15.27;;
9188;SDS011;34313;50.780;6.084;2023-11-21T01:42:35;30.87;;;16.20;;
9188;SDS011;34313;50.780;6.084;2023-11-21T01:45:04;34.10;;;17.53;;
9188;SDS011;34313;50.780;6.084;2023-11-21T01:47:30;31.10;;;16.80;;
9188;SDS011;34313;50.780;6.084;2023-11-21T01:49:57;33.23;;;15.90;;
9188;SDS011;34313;50.780;6.084;2023-11-21T01:52:23;30.90;;;17.17;;
9188;SDS011;34313;50.780;6.084;2023-11-21T01:54:49;29.17;;;17.07;;
9188;SDS011;34313;50.780;6.084;2023-11-21T01:57:15;29.80;;;16.83;;
9188;SDS011;34313;50.780;6.084;2023-11-21T01:59:45;30.60;;;16.90;;
9188;SDS011;34313;50.780;6.084;2023-11-21T02:02:13;31.57;;;16.00;;
9188;SDS011;34313;50.780;6.084;2023-11-21T02:04:39;28.53;;;16.30;;
9188;SDS011;34313;50.780;6.084;2023-11-21T02:07:04;28.93;;;16.17;;
9188;SDS011;34313;50.780;6.084;2023-11-21T02:09:33;27.93;;;16.17;;
9188;SDS011;34313;50.780;6.084;2023-11-21T02:11:59;25.90;;;15.70;;
9188;SDS011;34313;50.780;6.084;2023-11-21T02:14:25;26.23;;;14.73;;
9188;SDS011;34313;50.780;6.084;2023-11-21T02:16:54;29.43;;;15.73;;
9188;SDS011;34313;50.780;6.084;2023-11-21T02:19:22;26.60;;;15.73;;
9188;SDS011;34313;50.780;6.084;2023-11-21T02:21:54;25.40;;;14.93;;
9188;SDS011;34313;50.780;6.084;2023-11-21T02:24:23;28.00;;;15.70;;
9188;SDS011;34313;50.780;6.084;2023-11-21T02:26:48;23.40;;;14.13;;
9188;SDS011;34313;50.780;6.084;2023-11-21T02:29:18;27.37;;;14.93;;
9188;SDS011;34313;50.780;6.084;2023-11-21T02:31:47;24.10;;;14.60;;
9188;SDS011;34313;50.780;6.084;2023-11-21T02:34:17;28.73;;;15.00;;
9188;SDS011;34313;50.780;6.084;2023-11-21T02:36:46;22.00;;;13.40;;
9188;SDS011;34313;50.780;6.084;2023-11-21T02:39:14;24.97;;;14.10;;
9188;SDS011;34313;50.780;6.084;2023-11-21T02:41:41;24.67;;;13.57;;
9188;SDS011;34313;50.780;6.084;2023-11-21T02:44:07;26.13;;;14.00;;
9188;SDS011;34313;50.780;6.084;2023-11-21T02:46:33;22.23;;;13.23;;
9188;SDS011;34313;50.780;6.084;2023-11-21T02:49:02;26.13;;;12.77;;
9188;SDS011;34313;50.780;6.084;2023-11-21T02:51:29;23.80;;;13.80;;
9188;SDS011;34313;50.780;6.084;2023-11-21T02:53:58;31.90;;;15.27;;
9188;SDS011;34313;50.780;6.084;2023-11-21T02:56:27;28.20;;;15.37;;
9188;SDS011;34313;50.780;6.084;2023-11-21T02:58:55;26.87;;;14.67;;
9188;SDS011;34313;50.780;6.084;2023-11-21T03:01:21;26.80;;;15.80;;
9188;SDS011;34313;50.780;6.084;2023-11-21T03:03:47;29.17;;;15.50;;
9188;SDS011;34313;50.780;6.084;2023-11-21T03:06:21;27.83;;;16.00;;
9188;SDS011;34313;50.780;6.084;2023-11-21T03:08:48;27.40;;;14.73;;
9188;SDS011;34313;50.780;6.084;2023-11-21T03:11:13;25.60;;;14.43;;
9188;SDS011;34313;50.780;6.084;2023-11-21T03:13:42;25.50;;;14.87;;
9188;SDS011;34313;50.780;6.084;2023-11-21T03:16:08;30.20;;;15.40;;
9188;SDS011;34313;50.780;6.084;2023-11-21T03:18:35;30.60;;;15.80;;
9188;SDS011;34313;50.780;6.084;2023-11-21T03:21:01;25.60;;;14.93;;
9188;SDS011;34313;50.780;6.084;2023-11-21T03:23:30;29.30;;;15.80;;
9188;SDS011;34313;50.780;6.084;2023-11-21T03:25:57;25.87;;;15.10;;
9188;SDS011;34313;50.780;6.084;2023-11-21T03:28:25;31.07;;;16.07;;
9188;SDS011;34313;50.780;6.084;2023-11-21T03:30:55;23.30;;;14.70;;
9188;SDS011;34313;50.780;6.084;2023-11-21T03:33:23;26.77;;;14.27;;
9188;SDS011;34313;50.780;6.084;2023-11-21T03:35:49;25.00;;;14.90;;
9188;SDS011;34313;50.780;6.084;2023-11-21T03:38:14;25.63;;;14.33;;
9188;SDS011;34313;50.780;6.084;2023-11-21T03:40:44;29.40;;;14.87;;
9188;SDS011;34313;50.780;6.084;2023-11-21T03:43:09;30.27;;;15.47;;
9188;SDS011;34313;50.780;6.084;2023-11-21T03:45:37;25.67;;;14.77;;
9188;SDS011;34313;50.780;6.084;2023-11-21T03:48:05;25.53;;;13.70;;
9188;SDS011;34313;50.780;6.084;2023-11-21T03:50:35;28.50;;;15.33;;
9188;SDS011;34313;50.780;6.084;2023-11-21T03:53:00;26.43;;;13.77;;
9188;SDS011;34313;50.780;6.084;2023-11-21T03:55:26;28.07;;;14.13;;
9188;SDS011;34313;50.780;6.084;2023-11-21T03:57:52;22.70;;;14.10;;
9188;SDS011;34313;50.780;6.084;2023-11-21T04:00:22;29.93;;;14.33;;
9188;SDS011;34313;50.780;6.084;2023-11-21T04:02:47;23.10;;;12.50;;
9188;SDS011;34313;50.780;6.084;2023-11-21T04:05:13;24.63;;;14.07;;
9188;SDS011;34313;50.780;6.084;2023-11-21T04:07:39;26.43;;;14.10;;
9188;SDS011;34313;50.780;6.084;2023-11-21T04:10:05;23.17;;;13.47;;
9188;SDS011;34313;50.780;6.084;2023-11-21T04:12:33;23.93;;;13.30;;
9188;SDS011;34313;50.780;6.084;2023-11-21T04:14:59;21.63;;;11.47;;
9188;SDS011;34313;50.780;6.084;2023-11-21T04:17:25;21.43;;;10.60;;
9188;SDS011;34313;50.780;6.084;2023-11-21T04:19:51;22.07;;;10.77;;
9188;SDS011;34313;50.780;6.084;2023-11-21T04:22:19;20.60;;;11.30;;
9188;SDS011;34313;50.780;6.084;2023-11-21T04:24:45;20.47;;;11.77;;
9188;SDS011;34313;50.780;6.084;2023-11-21T04:27:13;22.63;;;11.77;;
9188;SDS011;34313;50.780;6.084;2023-11-21T04:29:39;16.87;;;10.90;;
9188;SDS011;34313;50.780;6.084;2023-11-21T04:32:09;18.23;;;10.67;;
9188;SDS011;34313;50.780;6.084;2023-11-21T04:34:35;20.70;;;11.60;;
9188;SDS011;34313;50.780;6.084;2023-11-21T04:37:01;22.80;;;11.73;;
9188;SDS011;34313;50.780;6.084;2023-11-21T04:39:28;24.70;;;11.90;;
9188;SDS011;34313;50.780;6.084;2023-11-21T04:41:53;26.53;;;12.77;;
9188;SDS011;34313;50.780;6.084;2023-11-21T04:44:19;21.30;;;12.67;;
9188;SDS011;34313;50.780;6.084;2023-11-21T04:46:45;20.50;;;11.77;;
9188;SDS011;34313;50.780;6.084;2023-11-21T04:49:11;21.60;;;12.33;;
9188;SDS011;34313;50.780;6.084;2023-11-21T04:51:36;22.60;;;11.87;;
9188;SDS011;34313;50.780;6.084;2023-11-21T04:54:02;20.63;;;12.23;;
9188;SDS011;34313;50.780;6.084;2023-11-21T04:56:28;25.30;;;13.67;;
9188;SDS011;34313;50.780;6.084;2023-11-21T04:58:54;21.27;;;12.73;;
9188;SDS011;34313;50.780;6.084;2023-11-21T05:01:19;26.70;;;14.67;;
9188;SDS011;34313;50.780;6.084;2023-11-21T05:03:48;20.90;;;12.87;;
9188;SDS011;34313;50.780;6.084;2023-11-21T05:06:14;22.87;;;13.50;;
9188;SDS011;34313;50.780;6.084;2023-11-21T05:08:40;22.10;;;12.83;;
9188;SDS011;34313;50.780;6.084;2023-11-21T05:11:05;25.07;;;12.83;;
9188;SDS011;34313;50.780;6.084;2023-11-21T05:13:35;20.53;;;12.80;;
9188;SDS011;34313;50.780;6.084;2023-11-21T05:16:02;20.50;;;12.30;;
9188;SDS011;34313;50.780;6.084;2023-11-21T05:18:32;26.57;;;13.77;;
9188;SDS011;34313;50.780;6.084;2023-11-21T05:20:57;23.50;;;12.47;;
9188;SDS011;34313;50.780;6.084;2023-11-21T05:23:23;26.67;;;13.77;;
9188;SDS011;34313;50.780;6.084;2023-11-21T05:25:49;28.00;;;14.50;;
9188;SDS011;34313;50.780;6.084;2023-11-21T05:28:22;28.43;;;13.77;;
9188;SDS011;34313;50.780;6.084;2023-11-21T05:30:48;27.43;;;13.23;;
9188;SDS011;34313;50.780;6.084;2023-11-21T05:33:18;23.20;;;13.13;;
9188;SDS011;34313;50.780;6.084;2023-11-21T05:35:44;25.50;;;13.03;;
9188;SDS011;34313;50.780;6.084;2023-11-21T05:38:10;25.93;;;12.83;;
9188;SDS011;34313;50.780;6.084;2023-11-21T05:40:36;27.37;;;13.73;;
9188;SDS011;34313;50.780;6.084;2023-11-21T05:43:01;23.23;;;13.63;;
9188;SDS011;34313;50.780;6.084;2023-11-21T05:45:27;26.50;;;14.47;;
9188;SDS011;34313;50.780;6.084;2023-11-21T05:47:54;32.80;;;14.60;;
9188;SDS011;34313;50.780;6.084;2023-11-21T05:50:19;25.87;;;14.70;;
9188;SDS011;34313;50.780;6.084;2023-11-21T05:52:45;26.17;;;13.60;;
9188;SDS011;34313;50.780;6.084;2023-11-21T05:55:12;26.90;;;14.07;;
9188;SDS011;34313;50.780;6.084;2023-11-21T05:57:38;22.83;;;12.77;;
9188;SDS011;34313;50.780;6.084;2023-11-21T06:00:05;30.20;;;15.37;;
9188;SDS011;34313;50.780;6.084;2023-11-21T06:02:51;32.10;;;16.13;;
9188;SDS011;34313;50.780;6.084;2023-11-21T06:05:25;29.43;;;15.00;;
9188;SDS011;34313;50.780;6.084;2023-11-21T06:07:52;29.80;;;15.33;;
9188;SDS011;34313;50.780;6.084;2023-11-21T06:10:24;32.17;;;15.67;;
9188;SDS011;34313;50.780;6.084;2023-11-21T06:12:50;27.27;;;14.13;;
9188;SDS011;34313;50.780;6.084;2023-11-21T06:15:16;29.83;;;14.60;;
9188;SDS011;34313;50.780;6.084;2023-11-21T06:17:44;28.00;;;14.30;;
9188;SDS011;34313;50.780;6.084;2023-11-21T06:20:14;26.73;;;13.80;;
9188;SDS011;34313;50.780;6.084;2023-11-21T06:22:41;36.63;;;16.70;;
9188;SDS011;34313;50.780;6.084;2023-11-21T06:25:07;32.40;;;16.40;;
9188;SDS011;34313;50.780;6.084;2023-11-21T06:27:41;34.53;;;16.33;;
9188;SDS011;34313;50.780;6.084;2023-11-21T06:33:08;35.17;;;16.67;;
9188;SDS011;34313;50.780;6.084;2023-11-21T06:35:39;33.40;;;16.50;;
9188;SDS011;34313;50.780;6.084;2023-11-21T07:12:18;39.87;;;18.87;;
9188;SDS011;34313;50.780;6.084;2023-11-21T07:14:44;40.47;;;19.70;;
9188;SDS011;34313;50.780;6.084;2023-11-21T07:17:10;38.47;;;19.10;;
9188;SDS011;34313;50.780;6.084;2023-11-21T07:19:37;39.83;;;19.00;;
9188;SDS011;34313;50.780;6.084;2023-11-21T07:22:03;37.53;;;17.40;;
9188;SDS011;34313;50.780;6.084;2023-11-21T07:24:29;35.07;;;18.63;;
9188;SDS011;34313;50.780;6.084;2023-11-21T07:26:56;38.40;;;18.20;;
9188;SDS011;34313;50.780;6.084;2023-11-21T07:29:23;38.30;;;18.10;;
9188;SDS011;34313;50.780;6.084;2023-11-21T07:31:50;42.23;;;19.73;;
9188;SDS011;34313;50.780;6.084;2023-11-21T07:34:16;39.43;;;17.77;;
9188;SDS011;34313;50.780;6.084;2023-11-21T07:36:42;38.90;;;18.30;;
9188;SDS011;34313;50.780;6.084;2023-11-21T07:39:07;35.93;;;18.13;;
9188;SDS011;34313;50.780;6.084;2023-11-21T07:41:32;34.73;;;16.70;;
9188;SDS011;34313;50.780;6.084;2023-11-21T07:43:58;42.83;;;19.57;;
9188;SDS011;34313;50.780;6.084;2023-11-21T07:46:25;39.67;;;18.23;;
9188;SDS011;34313;50.780;6.084;2023-11-21T07:48:52;37.93;;;19.40;;
9188;SDS011;34313;50.780;6.084;2023-11-21T07:51:18;42.17;;;18.50;;
9188;SDS011;34313;50.780;6.084;2023-11-21T07:53:43;46.40;;;20.50;;
9188;SDS011;34313;50.780;6.084;2023-11-21T07:56:09;42.83;;;19.37;;
9188;SDS011;34313;50.780;6.084;2023-11-21T07:58:35;47.23;;;18.70;;
9188;SDS011;34313;50.780;6.084;2023-11-21T08:01:01;55.97;;;20.87;;
9188;SDS011;34313;50.780;6.084;2023-11-21T08:03:28;48.50;;;18.80;;
9188;SDS011;34313;50.780;6.084;2023-11-21T08:05:57;47.27;;;19.33;;
9188;SDS011;34313;50.780;6.084;2023-11-21T08:08:23;54.33;;;19.33;;
9188;SDS011;34313;50.780;6.084;2023-11-21T08:10:48;44.93;;;19.60;;
9188;SDS011;34313;50.780;6.084;2023-11-21T08:13:21;53.97;;;19.10;;
9188;SDS011;34313;50.780;6.084;2023-11-21T08:15:47;53.23;;;19.77;;
9188;SDS011;34313;50.780;6.084;2023-11-21T08:18:12;64.83;;;21.63;;
9188;SDS011;34313;50.780;6.084;2023-11-21T08:20:39;52.70;;;19.17;;
9188;SDS011;34313;50.780;6.084;2023-11-21T08:23:05;53.13;;;19.10;;
9188;SDS011;34313;50.780;6.084;2023-11-21T08:25:31;59.20;;;20.70;;
9188;SDS011;34313;50.780;6.084;2023-11-21T08:27:57;43.20;;;17.40;;
9188;SDS011;34313;50.780;6.084;2023-11-21T08:30:23;53.03;;;17.37;;
9188;SDS011;34313;50.780;6.084;2023-11-21T08:32:49;49.60;;;18.13;;
9188;SDS011;34313;50.780;6.084;2023-11-21T08:35:17;58.40;;;17.90;;
9188;SDS011;34313;50.780;6.084;2023-11-21T08:37:42;48.83;;;18.60;;
9188;SDS011;34313;50.780;6.084;2023-11-21T08:40:08;49.97;;;18.60;;
9188;SDS011;34313;50.780;6.084;2023-11-21T08:42:41;42.43;;;17.47;;
9188;SDS011;34313;50.780;6.084;2023-11-21T08:45:07;49.63;;;17.00;;
9188;SDS011;34313;50.780;6.084;2023-11-21T08:47:34;49.40;;;18.00;;
9188;SDS011;34313;50.780;6.084;2023-11-21T08:49:59;45.37;;;18.20;;
9188;SDS011;34313;50.780;6.084;2023-11-21T08:52:25;48.30;;;17.50;;
9188;SDS011;34313;50.780;6.084;2023-11-21T08:54:50;56.17;;;17.30;;
9188;SDS011;34313;50.780;6.084;2023-11-21T08:57:23;45.77;;;18.00;;
9188;SDS011;34313;50.780;6.084;2023-11-21T08:59:49;43.60;;;18.03;;
9188;SDS011;34313;50.780;6.084;2023-11-21T09:02:20;48.10;;;17.37;;
9188;SDS011;34313;50.780;6.084;2023-11-21T09:04:45;46.03;;;17.63;;
9188;SDS011;34313;50.780;6.084;2023-11-21T09:07:11;52.57;;;17.90;;
9188;SDS011;34313;50.780;6.084;2023-11-21T09:09:37;47.43;;;18.43;;
9188;SDS011;34313;50.780;6.084;2023-11-21T09:12:08;47.87;;;17.80;;
9188;SDS011;34313;50.780;6.084;2023-11-21T09:14:37;57.47;;;19.37;;
9188;SDS011;34313;50.780;6.084;2023-11-21T09:17:03;63.40;;;21.63;;
9188;SDS011;34313;50.780;6.084;2023-11-21T09:19:28;43.23;;;18.87;;
9188;SDS011;34313;50.780;6.084;2023-11-21T09:21:54;39.70;;;16.50;;
9188;SDS011;34313;50.780;6.084;2023-11-21T09:24:19;37.90;;;15.83;;
9188;SDS011;34313;50.780;6.084;2023-11-21T09:26:45;41.20;;;16.20;;
9188;SDS011;34313;50.780;6.084;2023-11-21T09:29:10;40.73;;;16.70;;
9188;SDS011;34313;50.780;6.084;2023-11-21T09:31:35;47.20;;;18.13;;
9188;SDS011;34313;50.780;6.084;2023-11-21T09:34:01;40.97;;;18.07;;
9188;SDS011;34313;50.780;6.084;2023-11-21T09:36:27;45.60;;;17.97;;
9188;SDS011;34313;50.780;6.084;2023-11-21T09:38:55;42.93;;;17.40;;
9188;SDS011;34313;50.780;6.084;2023-11-21T09:41:32;44.90;;;16.77;;
9188;SDS011;34313;50.780;6.084;2023-11-21T09:44:05;40.43;;;16.70;;
9188;SDS011;34313;50.780;6.084;2023-11-21T09:46:37;40.13;;;16.30;;
9188;SDS011;34313;50.780;6.084;2023-11-21T09:49:05;43.20;;;17.10;;
9188;SDS011;34313;50.780;6.084;2023-11-21T09:51:37;46.77;;;17.33;;
9188;SDS011;34313;50.780;6.084;2023-11-21T09:54:06;41.20;;;16.27;;
9188;SDS011;34313;50.780;6.084;2023-11-21T09:56:35;42.77;;;17.33;;
9188;SDS011;34313;50.780;6.084;2023-11-21T09:59:02;47.00;;;18.17;;
9188;SDS011;34313;50.780;6.084;2023-11-21T10:01:32;46.03;;;18.00;;
9188;SDS011;34313;50.780;6.084;2023-11-21T10:03:58;46.90;;;17.77;;
9188;SDS011;34313;50.780;6.084;2023-11-21T10:06:24;42.50;;;17.83;;
9188;SDS011;34313;50.780;6.084;2023-11-21T10:08:52;39.63;;;16.63;;
9188;SDS011;34313;50.780;6.084;2023-11-21T10:11:19;40.60;;;15.03;;
9188;SDS011;34313;50.780;6.084;2023-11-21T10:13:46;32.40;;;13.60;;
9188;SDS011;34313;50.780;6.084;2023-11-21T10:16:15;30.97;;;14.17;;
9188;SDS011;34313;50.780;6.084;2023-11-21T10:18:46;38.23;;;14.60;;
9188;SDS011;34313;50.780;6.084;2023-11-21T10:21:14;39.93;;;17.07;;
9188;SDS011;34313;50.780;6.084;2023-11-21T10:23:40;32.43;;;14.00;;
9188;SDS011;34313;50.780;6.084;2023-11-21T10:26:09;30.80;;;12.93;;
9188;SDS011;34313;50.780;6.084;2023-11-21T10:31:23;31.50;;;12.30;;
9188;SDS011;34313;50.780;6.084;2023-11-21T10:33:49;30.17;;;12.03;;
9188;SDS011;34313;50.780;6.084;2023-11-21T10:36:28;26.87;;;11.53;;
9188;SDS011;34313;50.780;6.084;2023-11-21T10:38:56;25.17;;;11.23;;
9188;SDS011;34313;50.780;6.084;2023-11-21T10:41:24;19.83;;;10.27;;
9188;SDS011;34313;50.780;6.084;2023-11-21T10:43:52;31.30;;;10.83;;
9188;SDS011;34313;50.780;6.084;2023-11-21T10:46:20;24.67;;;11.60;;
9188;SDS011;34313;50.780;6.084;2023-11-21T10:48:57;28.63;;;12.70;;
9188;SDS011;34313;50.780;6.084;2023-11-21T10:51:23;24.63;;;11.90;;
9188;SDS011;34313;50.780;6.084;2023-11-21T10:53:52;31.30;;;12.03;;
9188;SDS011;34313;50.780;6.084;2023-11-21T10:56:18;37.43;;;13.67;;
9188;SDS011;34313;50.780;6.084;2023-11-21T10:58:48;30.00;;;12.00;;
9188;SDS011;34313;50.780;6.084;2023-11-21T11:01:16;27.90;;;11.93;;
9188;SDS011;34313;50.780;6.084;2023-11-21T11:03:43;26.37;;;11.67;;
9188;SDS011;34313;50.780;6.084;2023-11-21T11:06:09;27.00;;;12.10;;
9188;SDS011;34313;50.780;6.084;2023-11-21T11:08:38;29.03;;;12.40;;
9188;SDS011;34313;50.780;6.084;2023-11-21T11:11:07;30.90;;;13.80;;
9188;SDS011;34313;50.780;6.084;2023-11-21T11:13:42;29.10;;;13.10;;
9188;SDS011;34313;50.780;6.084;2023-11-21T11:16:10;24.47;;;11.63;;
9188;SDS011;34313;50.780;6.084;2023-11-21T11:18:42;26.67;;;11.73;;
9188;SDS011;34313;50.780;6.084;2023-11-21T11:21:19;22.83;;;11.53;;
9188;SDS011;34313;50.780;6.084;2023-11-21T11:26:30;20.00;;;9.80;;
9188;SDS011;34313;50.780;6.084;2023-11-21T11:34:20;31.50;;;12.60;;
9188;SDS011;34313;50.780;6.084;2023-11-21T11:36:54;23.67;;;11.00;;
9188;SDS011;34313;50.780;6.084;2023-11-21T11:39:37;30.83;;;12.80;;
9188;SDS011;34313;50.780;6.084;2023-11-21T11:42:05;21.40;;;11.27;;
9188;SDS011;34313;50.780;6.084;2023-11-21T11:47:16;25.57;;;11.40;;
9188;SDS011;34313;50.780;6.084;2023-11-21T11:55:11;24.03;;;11.60;;
9188;SDS011;34313;50.780;6.084;2023-11-21T11:57:43;21.07;;;10.40;;
9188;SDS011;34313;50.780;6.084;2023-11-21T12:00:19;20.33;;;9.80;;
9188;SDS011;34313;50.780;6.084;2023-11-21T12:02:48;21.67;;;9.33;;
9188;SDS011;34313;50.780;6.084;2023-11-21T12:05:18;21.30;;;8.50;;
9188;SDS011;34313;50.780;6.084;2023-11-21T12:07:51;21.50;;;9.43;;
9188;SDS011;34313;50.780;6.084;2023-11-21T12:10:23;19.63;;;8.50;;
9188;SDS011;34313;50.780;6.084;2023-11-21T12:12:50;16.77;;;7.77;;
9188;SDS011;34313;50.780;6.084;2023-11-21T12:15:20;17.30;;;7.80;;
9188;SDS011;34313;50.780;6.084;2023-11-21T12:17:47;18.83;;;8.80;;
9188;SDS011;34313;50.780;6.084;2023-11-21T12:20:14;24.17;;;8.73;;
9188;SDS011;34313;50.780;6.084;2023-11-21T12:22:49;17.10;;;8.47;;
9188;SDS011;34313;50.780;6.084;2023-11-21T12:25:16;14.23;;;7.10;;
9188;SDS011;34313;50.780;6.084;2023-11-21T12:27:56;17.63;;;8.33;;
9188;SDS011;34313;50.780;6.084;2023-11-21T12:30:28;18.10;;;7.80;;
9188;SDS011;34313;50.780;6.084;2023-11-21T12:33:00;16.47;;;7.80;;
9188;SDS011;34313;50.780;6.084;2023-11-21T12:35:27;20.03;;;8.03;;
9188;SDS011;34313;50.780;6.084;2023-11-21T12:37:55;16.67;;;7.90;;
9188;SDS011;34313;50.780;6.084;2023-11-21T12:40:24;16.57;;;7.97;;
9188;SDS011;34313;50.780;6.084;2023-11-21T12:42:55;20.60;;;8.10;;
9188;SDS011;34313;50.780;6.084;2023-11-21T12:45:22;15.77;;;7.10;;
9188;SDS011;34313;50.780;6.084;2023-11-21T12:47:53;16.93;;;7.20;;
9188;SDS011;34313;50.780;6.084;2023-11-21T12:50:22;17.27;;;8.67;;
9188;SDS011;34313;50.780;6.084;2023-11-21T12:52:49;18.20;;;9.60;;
9188;SDS011;34313;50.780;6.084;2023-11-21T12:55:16;18.70;;;9.83;;
9188;SDS011;34313;50.780;6.084;2023-11-21T12:57:44;22.93;;;10.23;;
9188;SDS011;34313;50.780;6.084;2023-11-21T13:00:10;28.10;;;11.17;;
9188;SDS011;34313;50.780;6.084;2023-11-21T13:02:42;23.57;;;11.40;;
9188;SDS011;34313;50.780;6.084;2023-11-21T13:05:07;21.20;;;9.90;;
9188;SDS011;34313;50.780;6.084;2023-11-21T13:07:43;24.23;;;10.03;;
9188;SDS011;34313;50.780;6.084;2023-11-21T13:10:12;23.10;;;10.63;;
9188;SDS011;34313;50.780;6.084;2023-11-21T13:12:44;31.37;;;10.67;;
9188;SDS011;34313;50.780;6.084;2023-11-21T13:15:14;18.10;;;8.63;;
9188;SDS011;34313;50.780;6.084;2023-11-21T13:17:46;20.37;;;8.90;;
9188;SDS011;34313;50.780;6.084;2023-11-21T13:20:16;20.93;;;8.90;;
9188;SDS011;34313;50.780;6.084;2023-11-21T13:22:48;15.10;;;8.40;;
9188;SDS011;34313;50.780;6.084;2023-11-21T13:25:24;17.23;;;7.43;;
9188;SDS011;34313;50.780;6.084;2023-11-21T13:28:01;17.93;;;6.70;;
9188;SDS011;34313;50.780;6.084;2023-11-21T13:30:29;12.30;;;6.13;;
9188;SDS011;34313;50.780;6.084;2023-11-21T13:33:07;12.70;;;5.87;;
9188;SDS011;34313;50.780;6.084;2023-11-21T13:35:35;18.87;;;5.50;;
9188;SDS011;34313;50.780;6.084;2023-11-21T13:38:13;13.47;;;5.40;;
9188;SDS011;34313;50.780;6.084;2023-11-21T13:40:42;13.00;;;6.30;;
9188;SDS011;34313;50.780;6.084;2023-11-21T13:43:16;16.57;;;6.07;;
9188;SDS011;34313;50.780;6.084;2023-11-21T13:45:46;13.70;;;6.70;;
9188;SDS011;34313;50.780;6.084;2023-11-21T13:48:15;18.20;;;7.17;;
9188;SDS011;34313;50.780;6.084;2023-11-21T13:50:44;20.87;;;7.47;;
9188;SDS011;34313;50.780;6.084;2023-11-21T13:53:20;17.70;;;8.07;;
9188;SDS011;34313;50.780;6.084;2023-11-21T13:55:48;15.70;;;8.00;;
9188;SDS011;34313;50.780;6.084;2023-11-21T13:58:22;19.63;;;7.90;;
9188;SDS011;34313;50.780;6.084;2023-11-21T14:01:00;18.20;;;7.77;;
9188;SDS011;34313;50.780;6.084;2023-11-21T14:03:31;17.50;;;8.07;;
9188;SDS011;34313;50.780;6.084;2023-11-21T14:06:09;19.70;;;7.90;;
9188;SDS011;34313;50.780;6.084;2023-11-21T14:08:48;18.07;;;8.40;;
9188;SDS011;34313;50.780;6.084;2023-11-21T14:11:14;19.90;;;8.37;;
9188;SDS011;34313;50.780;6.084;2023-11-21T14:13:47;19.20;;;8.77;;
9188;SDS011;34313;50.780;6.084;2023-11-21T14:16:13;21.63;;;9.33;;
9188;SDS011;34313;50.780;6.084;2023-11-21T14:18:42;17.70;;;8.50;;
9188;SDS011;34313;50.780;6.084;2023-11-21T14:21:17;17.30;;;8.70;;
9188;SDS011;34313;50.780;6.084;2023-11-21T14:23:46;21.93;;;9.70;;
9188;SDS011;34313;50.780;6.084;2023-11-21T14:26:13;21.40;;;9.80;;
9188;SDS011;34313;50.780;6.084;2023-11-21T14:28:40;17.30;;;9.00;;
9188;SDS011;34313;50.780;6.084;2023-11-21T14:31:06;24.30;;;11.10;;
9188;SDS011;34313;50.780;6.084;2023-11-21T14:33:33;16.70;;;9.67;;
9188;SDS011;34313;50.780;6.084;2023-11-21T14:35:58;19.53;;;8.70;;
9188;SDS011;34313;50.780;6.084;2023-11-21T14:38:24;17.20;;;9.93;;
9188;SDS011;34313;50.780;6.084;2023-11-21T14:40:49;19.07;;;9.73;;
9188;SDS011;34313;50.780;6.084;2023-11-21T14:43:15;20.57;;;10.10;;
9188;SDS011;34313;50.780;6.084;2023-11-21T14:45:41;18.13;;;8.60;;
9188;SDS011;34313;50.780;6.084;2023-11-21T14:48:07;18.27;;;9.10;;
9188;SDS011;34313;50.780;6.084;2023-11-21T14:50:33;19.80;;;9.20;;
9188;SDS011;34313;50.780;6.084;2023-11-21T14:53:18;20.37;;;9.93;;
9188;SDS011;34313;50.780;6.084;2023-11-21T14:56:04;23.40;;;10.03;;
9188;SDS011;34313;50.780;6.084;2023-11-21T14:58:30;22.87;;;10.33;;
9188;SDS011;34313;50.780;6.084;2023-11-21T15:00:56;17.27;;;9.30;;
9188;SDS011;34313;50.780;6.084;2023-11-21T15:03:26;17.37;;;8.53;;
9188;SDS011;34313;50.780;6.084;2023-11-21T15:05:58;18.40;;;8.63;;
9188;SDS011;34313;50.780;6.084;2023-11-21T15:08:42;18.20;;;8.83;;
9188;SDS011;34313;50.780;6.084;2023-11-21T15:11:08;17.40;;;9.63;;
9188;SDS011;34313;50.780;6.084;2023-11-21T15:13:39;15.70;;;8.30;;
9188;SDS011;34313;50.780;6.084;2023-11-21T15:16:05;20.10;;;9.30;;
9188;SDS011;34313;50.780;6.084;2023-11-21T15:18:33;19.17;;;9.50;;
9188;SDS011;34313;50.780;6.084;2023-11-21T15:20:59;19.30;;;10.40;;
9188;SDS011;34313;50.780;6.084;2023-11-21T15:23:24;23.77;;;11.50;;
9188;SDS011;34313;50.780;6.084;2023-11-21T15:25:50;20.33;;;10.90;;
9188;SDS011;34313;50.780;6.084;2023-11-21T15:28:15;21.80;;;10.27;;
9188;SDS011;34313;50.780;6.084;2023-11-21T15:30:42;19.47;;;10.17;;
9188;SDS011;34313;50.780;6.084;2023-11-21T15:33:08;21.20;;;10.53;;
9188;SDS011;34313;50.780;6.084;2023-11-21T15:35:34;21.40;;;12.10;;
9188;SDS011;34313;50.780;6.084;2023-11-21T15:38:02;19.67;;;10.87;;